Time;durP1;ratioP1;P1;durP2;ratioP2;P2;SDS_P1;SDS_P2;PMS_P1;PMS_P2;Temp;Humidity;BMP_temperature;BMP_pressure;BME280_temperature;BME280_humidity;BME280_pressure;Samples;Min_cycle;Max_cycle;Signal;HPM_P1;HPM_P2
2023/10/31 00:01:08;;;;;;;4.40;4.00;;;12.00;99.90;;;;;;5052716;28;20464;-62
2023/10/31 00:03:35;;;;;;;4.90;4.07;;;12.00;99.90;;;;;;5053264;28;20420;-62
2023/10/31 00:06:03;;;;;;;5.63;4.10;;;11.90;99.90;;;;;;5053294;28;20443;-62
2023/10/31 00:08:30;;;;;;;5.10;4.60;;;12.00;99.90;;;;;;5053180;28;20458;-63
2023/10/31 00:10:57;;;;;;;5.20;3.87;;;11.90;99.90;;;;;;5053012;28;20440;-63
2023/10/31 00:13:23;;;;;;;4.90;4.27;;;12.00;99.90;;;;;;5053259;28;20446;-62
2023/10/31 00:15:50;;;;;;;5.80;4.10;;;12.00;99.90;;;;;;5052845;28;20443;-61
2023/10/31 00:18:17;;;;;;;5.83;3.57;;;12.00;99.90;;;;;;5052768;28;20480;-62
2023/10/31 00:20:43;;;;;;;4.10;3.40;;;12.00;99.90;;;;;;5052584;28;20451;-62
2023/10/31 00:23:12;;;;;;;4.07;3.30;;;12.00;99.90;;;;;;5052709;28;20440;-61
2023/10/31 00:25:38;;;;;;;4.53;3.33;;;12.00;99.90;;;;;;5052734;28;20447;-61
2023/10/31 00:28:05;;;;;;;4.90;3.43;;;12.00;99.90;;;;;;5054607;28;20960;-62
2023/10/31 00:30:32;;;;;;;3.60;2.90;;;12.00;99.90;;;;;;5056494;28;20443;-63
2023/10/31 00:32:58;;;;;;;7.37;3.70;;;12.00;99.90;;;;;;5056909;28;20455;-64
2023/10/31 00:35:25;;;;;;;4.07;3.40;;;12.00;99.90;;;;;;5056772;28;20764;-62
2023/10/31 00:37:52;;;;;;;4.60;2.90;;;12.00;99.90;;;;;;5056918;28;20486;-62
2023/10/31 00:40:20;;;;;;;5.27;3.30;;;12.00;99.90;;;;;;5062301;28;20439;-61
2023/10/31 00:42:47;;;;;;;5.93;3.17;;;12.00;99.90;;;;;;5065159;28;20467;-63
2023/10/31 00:45:13;;;;;;;4.33;3.93;;;12.10;99.90;;;;;;5064568;28;20481;-62
2023/10/31 00:47:40;;;;;;;4.60;3.30;;;12.10;99.90;;;;;;5065239;28;20436;-62
2023/10/31 00:50:08;;;;;;;3.80;3.27;;;12.10;99.90;;;;;;5063274;28;20883;-62
2023/10/31 00:52:35;;;;;;;4.53;3.30;;;12.10;99.90;;;;;;5060482;28;20482;-63
2023/10/31 00:55:02;;;;;;;5.43;3.57;;;12.10;99.90;;;;;;5056684;28;20444;-62
2023/10/31 00:57:30;;;;;;;4.47;4.00;;;12.10;99.90;;;;;;5056489;28;20475;-63
2023/10/31 00:59:57;;;;;;;5.97;3.90;;;12.10;99.90;;;;;;5056332;28;20934;-64
2023/10/31 01:02:23;;;;;;;5.50;3.33;;;12.10;99.90;;;;;;5055993;28;20472;-63
2023/10/31 01:04:50;;;;;;;3.77;3.47;;;12.10;99.90;;;;;;5056313;28;20440;-63
2023/10/31 01:07:17;;;;;;;5.07;2.97;;;12.10;99.90;;;;;;5055954;28;20960;-63
2023/10/31 01:09:44;;;;;;;3.83;3.30;;;12.10;99.90;;;;;;5056375;28;20480;-62
2023/10/31 01:12:11;;;;;;;5.07;3.60;;;12.10;99.90;;;;;;5056874;28;20521;-62
2023/10/31 01:14:40;;;;;;;4.30;3.80;;;12.20;99.90;;;;;;5056017;28;20448;-63
2023/10/31 01:17:06;;;;;;;5.73;3.67;;;12.20;99.90;;;;;;5056274;28;20487;-61
2023/10/31 01:19:33;;;;;;;4.30;3.90;;;12.20;99.90;;;;;;5058461;28;20440;-62
2023/10/31 01:22:00;;;;;;;3.80;3.27;;;12.20;99.90;;;;;;5057147;28;20464;-63
2023/10/31 01:24:27;;;;;;;5.20;3.60;;;12.20;99.90;;;;;;5056945;28;20447;-61
2023/10/31 01:26:53;;;;;;;4.20;2.80;;;12.20;99.90;;;;;;5058527;28;20618;-62
2023/10/31 01:29:21;;;;;;;3.97;3.57;;;12.30;99.90;;;;;;5056503;28;20432;-62
2023/10/31 01:31:49;;;;;;;7.83;3.90;;;12.30;99.90;;;;;;5055812;28;20486;-62
2023/10/31 01:34:15;;;;;;;4.37;3.40;;;12.30;99.90;;;;;;5055836;28;20444;-61
2023/10/31 01:36:42;;;;;;;5.17;3.63;;;12.30;99.90;;;;;;5055946;28;20440;-61
2023/10/31 01:39:09;;;;;;;4.90;4.20;;;12.30;99.90;;;;;;5055552;28;20452;-61
2023/10/31 01:41:36;;;;;;;5.50;3.93;;;12.30;99.90;;;;;;5056463;28;20504;-62
2023/10/31 01:44:03;;;;;;;7.57;3.77;;;12.30;99.90;;;;;;5056045;28;20474;-61
2023/10/31 01:46:30;;;;;;;4.50;3.60;;;12.30;99.90;;;;;;5055740;28;20452;-62
2023/10/31 01:48:58;;;;;;;5.30;3.97;;;12.30;99.90;;;;;;5055847;28;20447;-62
2023/10/31 01:51:25;;;;;;;4.73;3.80;;;12.30;99.90;;;;;;5055135;28;21013;-62
2023/10/31 01:53:52;;;;;;;3.53;3.23;;;12.30;99.90;;;;;;5055203;28;20961;-62
2023/10/31 01:56:20;;;;;;;5.77;4.07;;;12.30;99.90;;;;;;5055187;28;20870;-62
2023/10/31 01:58:49;;;;;;;5.90;3.47;;;12.30;99.90;;;;;;5055547;28;20483;-62
2023/10/31 02:01:16;;;;;;;5.27;4.03;;;12.30;99.90;;;;;;5054642;28;20476;-63
2023/10/31 02:03:43;;;;;;;4.77;4.23;;;12.30;99.90;;;;;;5054879;28;20921;-63
2023/10/31 02:06:11;;;;;;;5.80;3.93;;;12.30;99.90;;;;;;5055048;28;20444;-62
2023/10/31 02:08:38;;;;;;;5.40;3.80;;;12.30;99.90;;;;;;5054832;28;20945;-62
2023/10/31 02:11:05;;;;;;;5.13;4.47;;;12.30;99.90;;;;;;5054783;28;20460;-62
2023/10/31 02:13:32;;;;;;;6.97;5.30;;;12.20;99.90;;;;;;5055002;28;20942;-62
2023/10/31 02:15:59;;;;;;;4.97;4.57;;;12.30;99.90;;;;;;5055257;28;20444;-61
2023/10/31 02:18:25;;;;;;;4.17;3.53;;;12.30;99.90;;;;;;5054978;28;20475;-62
2023/10/31 02:20:52;;;;;;;4.23;3.83;;;12.20;99.90;;;;;;5054820;28;20440;-62
2023/10/31 02:23:20;;;;;;;4.00;3.70;;;12.30;99.90;;;;;;5055253;28;20448;-61
2023/10/31 02:25:47;;;;;;;6.53;3.80;;;12.30;99.90;;;;;;5054758;28;20436;-62
2023/10/31 02:28:14;;;;;;;5.90;4.10;;;12.30;99.90;;;;;;5054964;28;20443;-62
2023/10/31 02:30:41;;;;;;;4.33;3.93;;;12.30;99.90;;;;;;5055115;28;20447;-63
2023/10/31 02:33:08;;;;;;;6.30;3.23;;;12.30;99.90;;;;;;5054665;28;20449;-62
2023/10/31 02:35:34;;;;;;;4.63;3.50;;;12.30;99.90;;;;;;5054413;28;20444;-62
2023/10/31 02:38:01;;;;;;;3.90;3.50;;;12.30;99.90;;;;;;5054723;28;20472;-62
2023/10/31 02:40:29;;;;;;;4.47;4.03;;;12.40;99.90;;;;;;5054384;28;20455;-62
2023/10/31 02:42:56;;;;;;;6.00;3.57;;;12.40;99.90;;;;;;5054416;28;20574;-63
2023/10/31 02:45:23;;;;;;;4.07;3.67;;;12.40;99.90;;;;;;5054078;28;20961;-62
2023/10/31 02:47:49;;;;;;;4.60;3.37;;;12.40;99.90;;;;;;5054287;28;20440;-61
2023/10/31 02:50:16;;;;;;;4.57;3.63;;;12.40;99.90;;;;;;5054826;28;20817;-62
2023/10/31 02:52:43;;;;;;;4.00;3.60;;;12.40;99.90;;;;;;5054111;28;20829;-61
2023/10/31 02:55:10;;;;;;;3.80;2.90;;;12.50;99.90;;;;;;5054820;28;20471;-62
2023/10/31 02:57:38;;;;;;;3.93;3.60;;;12.40;99.90;;;;;;5054517;28;20480;-62
2023/10/31 03:00:06;;;;;;;4.63;3.40;;;12.50;99.90;;;;;;5055093;28;20471;-61
2023/10/31 03:02:32;;;;;;;5.00;3.23;;;12.50;99.90;;;;;;5090025;22;20487;-62
2023/10/31 03:04:59;;;;;;;4.93;3.53;;;12.50;99.90;;;;;;5074117;28;20436;-62
2023/10/31 03:07:26;;;;;;;3.33;3.00;;;12.50;99.90;;;;;;5074313;28;20444;-63
2023/10/31 03:09:54;;;;;;;4.40;3.30;;;12.50;99.90;;;;;;5074347;28;20447;-63
2023/10/31 03:12:20;;;;;;;3.60;3.30;;;12.60;99.90;;;;;;5074338;28;20463;-62
2023/10/31 03:14:49;;;;;;;3.07;2.77;;;12.60;99.90;;;;;;5074169;28;20439;-62
2023/10/31 03:17:15;;;;;;;3.27;3.07;;;12.60;99.90;;;;;;5074090;28;20800;-63
2023/10/31 03:19:42;;;;;;;3.33;2.50;;;12.60;99.90;;;;;;5073816;28;20933;-61
2023/10/31 03:22:09;;;;;;;3.93;2.90;;;12.60;99.90;;;;;;5074127;28;20456;-61
2023/10/31 03:24:36;;;;;;;2.93;2.70;;;12.60;99.90;;;;;;5074002;28;20443;-62
2023/10/31 03:27:02;;;;;;;2.77;2.50;;;12.60;99.90;;;;;;5073975;28;20446;-63
2023/10/31 03:29:29;;;;;;;2.90;2.60;;;12.60;99.90;;;;;;5073777;28;20432;-63
2023/10/31 03:31:57;;;;;;;4.27;2.70;;;12.60;99.90;;;;;;5073962;28;20470;-63
2023/10/31 03:34:24;;;;;;;2.63;2.40;;;12.70;99.90;;;;;;5073637;28;20436;-62
2023/10/31 03:36:50;;;;;;;3.10;2.60;;;12.70;99.90;;;;;;5074067;28;20454;-62
2023/10/31 03:39:17;;;;;;;2.60;2.40;;;12.70;99.90;;;;;;5073774;28;20672;-62
2023/10/31 03:41:44;;;;;;;3.70;3.40;;;12.70;99.90;;;;;;5073518;28;20464;-62
2023/10/31 03:44:11;;;;;;;3.13;2.93;;;12.70;99.90;;;;;;5073694;28;20470;-62
2023/10/31 03:46:37;;;;;;;3.67;3.37;;;12.60;99.90;;;;;;5073970;28;20439;-63
2023/10/31 03:49:07;;;;;;;4.10;3.70;;;12.60;99.90;;;;;;5073664;28;20453;-62
2023/10/31 03:51:34;;;;;;;3.97;3.67;;;12.50;99.90;;;;;;5073671;28;20495;-63
2023/10/31 03:54:00;;;;;;;3.93;3.63;;;12.50;99.90;;;;;;5073903;28;20443;-62
2023/10/31 03:56:27;;;;;;;4.60;4.20;;;12.50;99.90;;;;;;5073413;28;20440;-63
2023/10/31 03:58:54;;;;;;;4.20;3.80;;;12.40;99.90;;;;;;5074254;28;20479;-63
2023/10/31 04:01:21;;;;;;;5.87;4.70;;;12.40;99.90;;;;;;5074176;28;20929;-62
2023/10/31 04:03:47;;;;;;;4.03;3.73;;;12.30;99.90;;;;;;5073087;28;20428;-62
2023/10/31 04:06:15;;;;;;;4.17;3.87;;;12.30;99.90;;;;;;5073596;28;20451;-62
2023/10/31 04:08:42;;;;;;;4.17;3.77;;;12.30;99.90;;;;;;5073250;28;20434;-63
2023/10/31 04:12:25;;;;;;;3.00;2.80;;;12.20;99.90;;;;;;5091240;27;1517032;-63
2023/10/31 04:14:51;;;;;;;2.93;2.73;;;12.20;99.90;;;;;;5132444;28;20198;-62
2023/10/31 04:17:18;;;;;;;2.63;2.43;;;12.10;99.90;;;;;;5134852;28;20440;-63
2023/10/31 04:19:45;;;;;;;2.20;2.10;;;12.10;99.90;;;;;;5136329;28;20440;-62
2023/10/31 04:22:11;;;;;;;2.03;1.93;;;12.00;99.90;;;;;;5136212;27;20444;-62
2023/10/31 04:24:38;;;;;;;1.80;1.70;;;12.00;99.90;;;;;;5134179;28;20447;-62
2023/10/31 04:27:05;;;;;;;2.10;1.90;;;11.90;99.90;;;;;;5134354;28;20439;-63
2023/10/31 04:29:33;;;;;;;2.10;1.97;;;11.90;99.90;;;;;;5134875;28;20448;-63
2023/10/31 04:32:00;;;;;;;3.53;2.30;;;11.80;99.90;;;;;;5134420;27;20484;-62
2023/10/31 04:34:27;;;;;;;1.97;1.77;;;11.80;99.90;;;;;;5135713;28;20447;-63
2023/10/31 04:36:54;;;;;;;1.80;1.70;;;11.80;99.90;;;;;;5137897;28;20444;-62
2023/10/31 04:39:20;;;;;;;1.67;1.57;;;11.80;99.90;;;;;;5135328;28;20450;-62
2023/10/31 04:41:47;;;;;;;1.33;1.23;;;11.70;99.90;;;;;;5135803;27;20853;-63
2023/10/31 04:44:14;;;;;;;1.00;0.77;;;11.70;99.90;;;;;;5134868;28;20485;-62
2023/10/31 04:46:42;;;;;;;5.53;0.90;;;11.60;99.90;;;;;;5132508;28;20433;-63
2023/10/31 04:49:09;;;;;;;1.03;0.93;;;11.60;99.90;;;;;;5132723;28;20440;-63
2023/10/31 04:51:37;;;;;;;1.00;0.90;;;11.60;99.90;;;;;;5132895;27;20485;-62
2023/10/31 04:54:04;;;;;;;0.80;0.80;;;11.60;99.90;;;;;;5134169;28;20439;-62
2023/10/31 04:56:31;;;;;;;0.70;0.50;;;11.50;99.90;;;;;;5134203;28;20447;-63
2023/10/31 04:58:58;;;;;;;0.80;0.50;;;11.60;99.90;;;;;;5132520;28;20437;-62
2023/10/31 05:01:25;;;;;;;0.57;0.50;;;11.50;99.90;;;;;;5147659;22;20490;-62
2023/10/31 05:03:53;;;;;;;0.60;0.60;;;11.50;99.90;;;;;;5110228;28;20434;-61
2023/10/31 05:06:21;;;;;;;0.50;0.40;;;11.50;99.90;;;;;;5109981;28;20444;-62
2023/10/31 05:08:47;;;;;;;0.60;0.40;;;11.40;99.90;;;;;;5109697;28;20529;-62
2023/10/31 05:11:14;;;;;;;1.83;0.50;;;11.40;99.90;;;;;;5110520;28;20493;-62
2023/10/31 05:13:41;;;;;;;0.53;0.50;;;11.40;99.90;;;;;;5110248;28;20445;-63
2023/10/31 05:16:08;;;;;;;1.07;0.50;;;11.40;99.90;;;;;;5110442;28;20784;-62
2023/10/31 05:18:37;;;;;;;0.50;0.40;;;11.40;99.90;;;;;;5110863;28;20438;-62
2023/10/31 05:21:06;;;;;;;0.50;0.40;;;11.30;99.90;;;;;;5110530;28;20458;-62
2023/10/31 05:23:33;;;;;;;1.23;0.50;;;11.30;99.90;;;;;;5098883;28;20805;-62
2023/10/31 05:25:59;;;;;;;0.70;0.40;;;11.30;99.90;;;;;;5097951;28;20449;-63
2023/10/31 05:28:26;;;;;;;0.50;0.40;;;11.30;99.90;;;;;;5097673;28;20542;-60
2023/10/31 05:30:53;;;;;;;0.97;0.63;;;11.20;99.90;;;;;;5097732;28;20528;-61
2023/10/31 05:33:20;;;;;;;0.80;0.57;;;11.20;99.90;;;;;;5105893;28;20941;-62
2023/10/31 05:35:46;;;;;;;0.50;0.40;;;11.20;99.90;;;;;;5106424;28;20438;-63
2023/10/31 05:38:14;;;;;;;0.70;0.40;;;11.20;99.90;;;;;;5106572;28;20447;-62
2023/10/31 05:40:41;;;;;;;0.83;0.50;;;11.20;99.90;;;;;;5105100;28;20434;-62
2023/10/31 05:43:08;;;;;;;1.13;0.40;;;11.20;99.90;;;;;;5102567;28;20795;-61
2023/10/31 05:45:35;;;;;;;0.70;0.53;;;11.10;99.90;;;;;;5095779;28;20434;-62
2023/10/31 05:48:01;;;;;;;2.53;0.60;;;11.10;99.90;;;;;;5095541;28;20438;-61
2023/10/31 05:50:28;;;;;;;0.80;0.60;;;11.10;99.90;;;;;;5095164;28;20955;-62
2023/10/31 05:52:55;;;;;;;1.87;0.80;;;11.10;99.90;;;;;;5095453;28;20458;-60
2023/10/31 05:55:23;;;;;;;1.80;0.60;;;11.10;99.90;;;;;;5095653;28;20465;-60
2023/10/31 05:57:50;;;;;;;1.57;0.70;;;11.10;99.90;;;;;;5095672;28;20442;-60
2023/10/31 06:00:17;;;;;;;0.50;0.50;;;11.10;99.90;;;;;;5095538;28;20446;-61
2023/10/31 06:02:44;;;;;;;0.70;0.63;;;11.10;99.90;;;;;;5095130;28;20470;-61
2023/10/31 06:05:11;;;;;;;0.77;0.60;;;11.10;99.90;;;;;;5095216;28;20478;-61
2023/10/31 06:07:37;;;;;;;0.73;0.70;;;11.10;99.90;;;;;;5095310;28;20446;-61
2023/10/31 06:10:05;;;;;;;1.60;0.90;;;11.10;99.90;;;;;;5095546;28;20442;-61
2023/10/31 06:12:33;;;;;;;0.90;0.80;;;11.10;99.90;;;;;;5094686;28;20867;-61
2023/10/31 06:15:00;;;;;;;1.00;0.80;;;11.10;99.90;;;;;;5095307;28;20434;-61
2023/10/31 06:17:27;;;;;;;1.30;0.80;;;11.10;99.90;;;;;;5095006;28;20443;-61
2023/10/31 06:19:53;;;;;;;1.10;0.90;;;11.10;99.90;;;;;;5095767;28;20442;-61
2023/10/31 06:22:20;;;;;;;1.00;0.90;;;11.10;99.90;;;;;;5094864;28;20451;-61
2023/10/31 06:24:47;;;;;;;0.90;0.80;;;11.10;99.90;;;;;;5094981;28;20453;-62
2023/10/31 06:27:13;;;;;;;1.53;1.37;;;11.10;99.90;;;;;;5095833;28;20521;-62
2023/10/31 06:29:42;;;;;;;3.00;1.10;;;11.10;99.90;;;;;;5095052;28;20537;-62
2023/10/31 06:32:08;;;;;;;1.80;1.20;;;11.10;99.90;;;;;;5095431;28;20478;-61
2023/10/31 06:34:35;;;;;;;2.33;1.53;;;11.10;99.90;;;;;;5094189;28;20452;-61
2023/10/31 06:37:03;;;;;;;2.33;1.33;;;11.00;99.90;;;;;;5094635;28;20454;-62
2023/10/31 06:39:29;;;;;;;2.20;1.20;;;11.00;99.90;;;;;;5095170;28;20449;-60
2023/10/31 06:41:56;;;;;;;1.20;1.10;;;11.00;99.90;;;;;;5095040;28;20984;-62
2023/10/31 06:44:23;;;;;;;1.53;1.30;;;11.10;99.90;;;;;;5095286;28;20472;-61
2023/10/31 06:46:51;;;;;;;1.50;1.40;;;11.10;99.90;;;;;;5095785;28;20439;-61
2023/10/31 06:49:19;;;;;;;2.07;1.87;;;11.10;99.90;;;;;;5096379;28;20509;-62
2023/10/31 06:51:46;;;;;;;2.17;1.80;;;11.10;99.90;;;;;;5096166;28;20992;-61
2023/10/31 06:54:12;;;;;;;2.63;1.40;;;11.10;99.90;;;;;;5096666;28;20442;-60
2023/10/31 06:56:39;;;;;;;3.20;1.93;;;11.10;99.90;;;;;;5096332;28;20786;-61
2023/10/31 06:59:06;;;;;;;3.10;1.70;;;11.10;99.90;;;;;;5096109;28;20443;-61
2023/10/31 07:01:33;;;;;;;3.13;1.57;;;11.10;99.90;;;;;;5096885;28;20545;-62
2023/10/31 07:04:01;;;;;;;2.40;1.93;;;11.10;99.90;;;;;;5097688;28;20430;-61
2023/10/31 07:06:27;;;;;;;1.90;1.60;;;11.10;99.90;;;;;;5098974;28;20536;-61
2023/10/31 07:08:54;;;;;;;1.90;1.70;;;11.10;99.90;;;;;;5097033;28;20955;-61
2023/10/31 07:11:21;;;;;;;3.17;1.80;;;11.10;99.90;;;;;;5097205;28;20931;-60
2023/10/31 07:13:47;;;;;;;3.20;1.60;;;11.10;99.90;;;;;;5095742;28;20438;-61
2023/10/31 07:16:14;;;;;;;1.80;1.60;;;11.10;99.90;;;;;;5095324;28;20442;-61
2023/10/31 07:18:41;;;;;;;1.40;1.30;;;11.10;99.90;;;;;;5094275;28;20434;-61
2023/10/31 07:21:09;;;;;;;5.70;2.27;;;11.10;99.90;;;;;;5094371;28;20466;-62
2023/10/31 07:23:36;;;;;;;2.60;1.50;;;11.10;99.90;;;;;;5095243;28;20472;-63
2023/10/31 07:26:04;;;;;;;2.03;1.40;;;11.20;99.90;;;;;;5095203;28;20446;-61
2023/10/31 07:28:30;;;;;;;1.70;1.27;;;11.10;99.90;;;;;;5095229;28;20442;-61
2023/10/31 07:30:57;;;;;;;2.03;1.83;;;11.10;99.90;;;;;;5096751;28;20465;-61
2023/10/31 07:33:24;;;;;;;2.90;1.70;;;11.10;99.90;;;;;;5094704;28;20482;-61
2023/10/31 07:35:50;;;;;;;1.10;1.00;;;11.10;99.90;;;;;;5094611;28;20543;-62
2023/10/31 07:38:18;;;;;;;2.23;1.33;;;11.10;99.90;;;;;;5094143;28;20442;-62
2023/10/31 07:40:45;;;;;;;1.67;1.30;;;11.10;99.90;;;;;;5094579;28;20445;-62
2023/10/31 07:43:12;;;;;;;1.50;1.40;;;11.10;99.90;;;;;;5094536;28;20513;-61
2023/10/31 07:45:39;;;;;;;1.50;1.40;;;11.10;99.90;;;;;;5093914;28;20465;-63
2023/10/31 07:48:06;;;;;;;1.50;1.40;;;11.10;99.90;;;;;;5094159;28;20442;-61
2023/10/31 07:50:32;;;;;;;1.70;1.60;;;11.10;99.90;;;;;;5094294;28;20442;-64
2023/10/31 07:52:59;;;;;;;2.63;1.60;;;11.10;99.90;;;;;;5094712;28;20990;-62
2023/10/31 07:55:27;;;;;;;4.40;1.90;;;11.10;99.90;;;;;;5095151;28;20446;-61
2023/10/31 07:57:54;;;;;;;4.07;1.27;;;11.10;99.90;;;;;;5096550;28;20445;-61
2023/10/31 08:00:21;;;;;;;4.47;1.90;;;11.10;99.90;;;;;;5100498;28;20446;-61
2023/10/31 08:02:48;;;;;;;2.00;1.40;;;11.20;99.90;;;;;;5099906;28;20876;-64
2023/10/31 08:05:15;;;;;;;2.43;1.20;;;11.20;99.90;;;;;;5098919;28;20457;-64
2023/10/31 08:07:42;;;;;;;1.93;1.43;;;11.20;99.90;;;;;;5099241;28;20434;-61
2023/10/31 08:10:09;;;;;;;1.87;1.40;;;11.20;99.90;;;;;;5096765;28;20437;-61
2023/10/31 08:12:38;;;;;;;1.53;1.43;;;11.20;99.90;;;;;;5093669;28;20488;-59
2023/10/31 08:15:05;;;;;;;1.90;1.30;;;11.10;99.90;;;;;;5094079;28;20496;-61
2023/10/31 08:17:32;;;;;;;1.40;1.30;;;11.10;99.90;;;;;;5094877;28;20449;-63
2023/10/31 08:19:59;;;;;;;2.40;1.20;;;11.20;99.90;;;;;;5094482;28;20441;-62
2023/10/31 08:22:25;;;;;;;1.27;1.13;;;11.10;99.90;;;;;;5093393;28;20465;-62
2023/10/31 08:24:52;;;;;;;1.40;1.20;;;11.20;99.90;;;;;;5094012;28;20442;-61
2023/10/31 08:27:19;;;;;;;1.67;1.47;;;11.30;99.90;;;;;;5093421;28;20446;-61
2023/10/31 08:29:47;;;;;;;2.27;1.30;;;11.40;99.90;;;;;;5093188;28;20466;-61
2023/10/31 08:32:14;;;;;;;2.43;1.47;;;11.40;99.90;;;;;;5092663;28;20861;-63
2023/10/31 08:34:41;;;;;;;1.40;1.10;;;11.30;99.90;;;;;;5093169;28;20447;-60
2023/10/31 08:37:07;;;;;;;1.30;1.13;;;11.40;99.90;;;;;;5093093;28;20443;-61
2023/10/31 08:39:34;;;;;;;1.30;1.10;;;11.40;99.90;;;;;;5093088;28;20449;-60
2023/10/31 08:42:01;;;;;;;1.30;1.20;;;11.40;99.90;;;;;;5092710;28;20976;-61
2023/10/31 08:44:28;;;;;;;1.70;1.20;;;11.40;99.90;;;;;;5092945;28;20944;-61
2023/10/31 08:46:56;;;;;;;1.40;1.20;;;11.50;99.90;;;;;;5093094;28;20446;-61
2023/10/31 08:49:23;;;;;;;4.03;1.47;;;11.50;99.90;;;;;;5092848;28;20818;-61
2023/10/31 08:51:49;;;;;;;1.20;1.10;;;11.60;99.90;;;;;;5093158;28;20482;-61
2023/10/31 08:54:16;;;;;;;1.30;1.20;;;11.70;99.90;;;;;;5093290;28;20445;-61
2023/10/31 08:56:43;;;;;;;1.87;1.20;;;11.70;99.90;;;;;;5092746;28;20442;-61
2023/10/31 08:59:09;;;;;;;1.13;1.03;;;11.80;99.90;;;;;;5096282;28;20921;-61
2023/10/31 09:01:36;;;;;;;1.80;1.10;;;11.70;99.90;;;;;;5096621;28;20466;-62
2023/10/31 09:04:04;;;;;;;3.10;1.30;;;11.80;99.90;;;;;;5096691;28;20525;-61
2023/10/31 09:06:31;;;;;;;1.27;1.10;;;11.90;99.90;;;;;;5097285;28;20445;-61
2023/10/31 09:08:58;;;;;;;1.40;0.97;;;11.80;99.90;;;;;;5096731;28;20438;-62
2023/10/31 09:11:25;;;;;;;1.10;1.00;;;11.90;99.90;;;;;;5096458;28;20841;-62
2023/10/31 09:13:51;;;;;;;1.83;1.20;;;11.90;99.90;;;;;;5096307;28;20489;-61
2023/10/31 09:16:18;;;;;;;1.20;1.10;;;12.00;99.90;;;;;;5096749;28;20442;-60
2023/10/31 09:18:46;;;;;;;3.17;1.10;;;12.10;99.90;;;;;;5096096;28;20449;-61
2023/10/31 09:21:14;;;;;;;1.40;1.03;;;12.10;99.90;;;;;;5096726;28;20466;-62
2023/10/31 09:23:41;;;;;;;3.50;0.90;;;12.10;99.90;;;;;;5096584;28;20437;-60
2023/10/31 09:26:08;;;;;;;1.30;1.20;;;12.30;99.90;;;;;;5096255;28;20483;-62
2023/10/31 09:28:37;;;;;;;1.20;1.00;;;12.30;99.90;;;;;;5096093;28;20860;-61
2023/10/31 09:31:04;;;;;;;0.90;0.80;;;12.30;99.90;;;;;;5095764;28;20512;-61
2023/10/31 09:33:31;;;;;;;1.43;1.00;;;12.30;99.90;;;;;;5095710;28;20474;-62
2023/10/31 09:35:57;;;;;;;1.57;0.93;;;12.20;99.90;;;;;;5095937;28;20449;-64
2023/10/31 09:38:27;;;;;;;1.57;0.77;;;12.10;99.90;;;;;;5096234;28;20941;-62
2023/10/31 09:40:54;;;;;;;1.10;0.63;;;12.00;99.90;;;;;;5095631;28;20989;-62
2023/10/31 09:43:21;;;;;;;0.93;0.80;;;11.90;99.90;;;;;;5096007;28;20620;-62
2023/10/31 09:45:48;;;;;;;0.93;0.83;;;11.90;99.90;;;;;;5096237;28;20453;-61
2023/10/31 09:48:15;;;;;;;1.57;0.93;;;11.80;99.90;;;;;;5095796;28;20438;-61
2023/10/31 09:50:42;;;;;;;0.80;0.60;;;11.90;99.90;;;;;;5095995;28;20438;-61
2023/10/31 09:53:10;;;;;;;1.33;0.80;;;11.80;99.90;;;;;;5095908;28;20478;-61
2023/10/31 09:55:39;;;;;;;0.60;0.50;;;11.80;99.90;;;;;;5095931;28;20947;-62
2023/10/31 09:58:05;;;;;;;1.30;1.00;;;11.80;99.90;;;;;;5095616;28;20443;-61
2023/10/31 10:00:32;;;;;;;1.03;0.80;;;11.80;99.90;;;;;;5095711;28;20449;-61
2023/10/31 10:02:59;;;;;;;1.73;0.60;;;11.80;99.90;;;;;;5095236;28;20478;-60
2023/10/31 10:05:27;;;;;;;0.70;0.50;;;11.80;99.90;;;;;;5095306;28;20435;-62
2023/10/31 10:07:56;;;;;;;0.60;0.40;;;11.80;99.90;;;;;;5095250;28;20478;-62
2023/10/31 10:10:23;;;;;;;0.90;0.50;;;11.80;99.90;;;;;;5095587;28;20441;-61
2023/10/31 10:12:52;;;;;;;0.80;0.60;;;11.90;99.90;;;;;;5096106;28;20999;-61
2023/10/31 10:15:19;;;;;;;0.90;0.50;;;11.90;99.90;;;;;;5095976;28;20970;-61
2023/10/31 10:17:50;;;;;;;0.67;0.60;;;11.90;99.90;;;;;;5095161;28;20458;-62
2023/10/31 10:20:17;;;;;;;0.70;0.50;;;12.00;99.90;;;;;;5095711;28;20505;-63
2023/10/31 10:22:44;;;;;;;0.90;0.77;;;12.00;99.90;;;;;;5098630;28;20468;-60
2023/10/31 10:25:14;;;;;;;0.60;0.60;;;12.10;99.90;;;;;;5103107;28;20950;-62
2023/10/31 10:27:41;;;;;;;0.70;0.50;;;12.20;99.90;;;;;;5100365;28;20442;-65
2023/10/31 10:30:10;;;;;;;0.73;0.50;;;12.30;99.90;;;;;;5098064;28;20485;-65
2023/10/31 10:32:37;;;;;;;0.60;0.50;;;12.20;99.90;;;;;;5099546;28;20486;-60
2023/10/31 10:35:05;;;;;;;0.73;0.57;;;12.30;99.90;;;;;;5100433;28;20438;-62
2023/10/31 10:37:32;;;;;;;0.73;0.70;;;12.40;99.90;;;;;;5095911;28;20621;-61
2023/10/31 10:39:59;;;;;;;0.60;0.50;;;12.40;99.90;;;;;;5095979;28;20447;-65
2023/10/31 10:42:33;;;;;;;0.70;0.60;;;12.50;99.90;;;;;;5096210;28;20512;-61
2023/10/31 10:45:04;;;;;;;2.27;0.53;;;12.60;99.90;;;;;;5095693;28;20969;-61
2023/10/31 10:47:34;;;;;;;1.53;0.53;;;12.60;99.90;;;;;;5096226;28;20477;-62
2023/10/31 10:50:02;;;;;;;0.90;0.60;;;12.70;99.90;;;;;;5096031;28;20935;-62
2023/10/31 10:52:35;;;;;;;1.00;0.60;;;12.70;99.90;;;;;;5096241;28;20524;-61
2023/10/31 10:55:07;;;;;;;0.80;0.70;;;12.70;99.90;;;;;;5094554;28;20897;-62
2023/10/31 10:57:39;;;;;;;1.07;0.70;;;12.60;99.90;;;;;;5094719;28;20526;-62
2023/10/31 11:00:12;;;;;;;4.00;0.80;;;12.60;99.90;;;;;;5093774;28;20433;-61
2023/10/31 11:02:42;;;;;;;1.27;1.00;;;12.60;99.90;;;;;;5093699;28;20561;-61
2023/10/31 11:05:10;;;;;;;1.23;0.70;;;12.60;99.90;;;;;;5094564;28;20438;-61
2023/10/31 11:07:38;;;;;;;1.00;0.63;;;12.60;99.90;;;;;;5094081;28;20443;-60
2023/10/31 11:10:06;;;;;;;0.80;0.80;;;12.50;99.90;;;;;;5094141;28;20932;-61
2023/10/31 11:12:33;;;;;;;1.13;0.93;;;12.50;99.90;;;;;;5094069;28;20486;-61
2023/10/31 11:15:02;;;;;;;1.50;0.87;;;12.60;99.90;;;;;;5094268;28;20831;-63
2023/10/31 11:17:31;;;;;;;2.20;0.87;;;12.60;99.90;;;;;;5093841;28;20818;-61
2023/10/31 11:19:59;;;;;;;2.00;1.00;;;12.60;99.90;;;;;;5093991;28;20442;-60
2023/10/31 11:22:26;;;;;;;0.80;0.70;;;12.60;99.90;;;;;;5094620;28;20458;-61
2023/10/31 11:24:53;;;;;;;1.47;0.90;;;12.60;99.90;;;;;;5095021;28;20466;-62
2023/10/31 11:27:20;;;;;;;1.13;0.80;;;12.60;99.90;;;;;;5094108;28;20558;-61
2023/10/31 11:29:48;;;;;;;2.90;1.00;;;12.60;99.90;;;;;;5094651;28;20444;-62
2023/10/31 11:32:15;;;;;;;0.90;0.70;;;12.60;99.90;;;;;;5093617;28;20975;-62
2023/10/31 11:34:43;;;;;;;1.20;1.00;;;12.50;99.90;;;;;;5093619;28;20449;-61
2023/10/31 11:37:32;;;;;;;0.93;0.80;;;12.50;99.90;;;;;;5093208;28;20449;-60
2023/10/31 11:40:18;;;;;;;1.20;0.97;;;12.40;99.90;;;;;;5093682;28;20434;-62
2023/10/31 11:42:49;;;;;;;1.10;0.97;;;12.50;99.90;;;;;;5093448;28;20503;-61
2023/10/31 11:45:27;;;;;;;2.10;0.97;;;12.50;99.90;;;;;;5093763;28;20476;-61
2023/10/31 11:47:54;;;;;;;1.60;1.00;;;12.50;99.90;;;;;;5093661;28;20418;-61
2023/10/31 11:50:21;;;;;;;1.83;1.20;;;12.50;99.90;;;;;;5093879;28;20446;-61
2023/10/31 11:53:07;;;;;;;1.93;1.20;;;12.50;99.90;;;;;;5093344;28;20490;-61
2023/10/31 11:55:40;;;;;;;1.63;1.47;;;12.60;99.90;;;;;;5093506;28;20790;-62
2023/10/31 11:58:20;;;;;;;1.80;1.20;;;12.70;99.90;;;;;;5093617;28;20429;-61
2023/10/31 12:00:48;;;;;;;2.63;1.17;;;12.80;99.90;;;;;;5093525;28;20462;-62
2023/10/31 12:03:16;;;;;;;1.73;1.40;;;12.80;99.90;;;;;;5092901;28;20767;-63
2023/10/31 12:05:52;;;;;;;1.27;1.10;;;12.80;99.90;;;;;;5093676;28;20438;-62
2023/10/31 12:08:30;;;;;;;1.60;1.20;;;12.80;99.90;;;;;;5093489;28;20428;-62
2023/10/31 12:11:10;;;;;;;2.70;1.10;;;12.70;99.90;;;;;;5093219;28;20540;-62
2023/10/31 12:13:39;;;;;;;2.03;0.73;;;12.70;99.90;;;;;;5093713;28;20485;-63
2023/10/31 12:16:07;;;;;;;1.53;1.00;;;12.60;99.90;;;;;;5093429;28;20445;-58
2023/10/31 12:18:35;;;;;;;1.43;1.17;;;12.60;99.90;;;;;;5093307;28;20443;-60
2023/10/31 12:21:02;;;;;;;2.83;1.50;;;12.60;99.90;;;;;;5093648;28;20863;-60
2023/10/31 12:23:30;;;;;;;1.43;1.20;;;12.60;99.90;;;;;;5093775;28;20521;-61
2023/10/31 12:25:57;;;;;;;2.83;1.30;;;12.60;99.90;;;;;;5093397;28;20812;-60
2023/10/31 12:28:26;;;;;;;1.60;1.30;;;12.60;99.90;;;;;;5093448;28;20448;-62
2023/10/31 12:30:54;;;;;;;1.20;1.10;;;12.60;99.90;;;;;;5093678;28;20443;-62
2023/10/31 12:33:24;;;;;;;1.63;1.40;;;12.70;99.90;;;;;;5096137;28;20521;-62
2023/10/31 12:35:53;;;;;;;2.63;1.43;;;12.70;99.90;;;;;;5097901;28;20935;-62
2023/10/31 12:38:20;;;;;;;1.50;1.20;;;12.70;99.90;;;;;;5097858;28;20439;-62
2023/10/31 12:40:49;;;;;;;1.40;1.23;;;12.70;99.90;;;;;;5098459;28;20434;-62
2023/10/31 12:43:17;;;;;;;2.80;1.57;;;12.70;99.90;;;;;;5099972;28;20430;-60
2023/10/31 12:45:43;;;;;;;2.17;1.60;;;12.60;99.90;;;;;;5099829;28;20532;-61
2023/10/31 12:48:11;;;;;;;1.80;1.40;;;12.60;99.90;;;;;;5101803;28;20438;-61
2023/10/31 12:50:40;;;;;;;1.70;1.40;;;12.60;99.90;;;;;;5104762;28;20450;-61